CheckWX is a tool to help pilots better visualize weather data.  It is not intended as a substitute for an official pre-flight weather briefing.

18:24:55 UTC

PFNO METAR
Robert / Bob / Curtis Memorial Airport
Noorvik, Alaska, USA
Current

29 mins ago

PFNO 201756Z AUTO 08005KT 10SM CLR M02/M02 A2955 RMK AO2 SLP008 T10171017 11011 21022 56007 FZRANO
Observed
Sep-20 @ 17:56 UTC
Wind
  • 080° at 5 KTS
Visibility
10 SM
Flight Rules
VFR
Cloud Levels
  • Clear skies
Temperature
-2°C / 28°F
Dewpoint
-2°C / 28°F
Humidity
100%
Altimeter
29.55" Hg
Pressure
1000.72 hPa
Previous

1 hour ago

PFNO 201656Z AUTO 09006KT 10SM CLR M02/M02 A2956 RMK AO2 SLP009 T10221022 FZRANO
Observed
Sep-20 @ 16:56 UTC
Wind
  • 090° at 6 KTS
Visibility
10 SM
Flight Rules
VFR
Cloud Levels
  • Clear skies
Temperature
-2°C / 28°F
Dewpoint
-2°C / 28°F
Humidity
100%
Altimeter
29.56" Hg
Pressure
1001.02 hPa
Previous

2 hours ago

PFNO 201632Z AUTO 07004KT 3SM BR CLR M02/M02 A2956 RMK AO2 FZRANO
Observed
Sep-20 @ 16:32 UTC
Wind
  • 070° at 4 KTS
Visibility
3 SM
Flight Rules
MVFR
Conditions
Mist
Cloud Levels
  • Clear skies
Temperature
-2°C / 28°F
Dewpoint
-2°C / 28°F
Humidity
100%
Altimeter
29.56" Hg
Pressure
1001.02 hPa